createdAt,value
2022-09-15T00:00:36.715Z,11.25
2022-09-15T00:01:36.845Z,11.25
2022-09-15T00:02:36.834Z,11.25
2022-09-15T00:03:36.791Z,11.24
2022-09-15T00:04:36.839Z,11.22
2022-09-15T00:05:36.949Z,11.13
2022-09-15T00:06:36.803Z,11.14
2022-09-15T00:07:36.900Z,11.13
2022-09-15T00:08:37.006Z,11.14
2022-09-15T00:09:37.151Z,11.11
2022-09-15T00:10:36.901Z,11.07
2022-09-15T00:11:37.410Z,11.05
2022-09-15T00:12:37.266Z,11.06
2022-09-15T00:13:38.035Z,11.11
2022-09-15T00:14:36.961Z,11.11
2022-09-15T00:15:36.978Z,11.12
2022-09-15T00:16:37.735Z,11.15
2022-09-15T00:17:36.984Z,11.13
2022-09-15T00:18:37.976Z,11.12
2022-09-15T00:19:37.049Z,11.12
2022-09-15T00:20:40.059Z,11.16
2022-09-15T00:21:38.479Z,11.18
2022-09-15T00:22:37.495Z,11.16
2022-09-15T00:23:37.797Z,11.16
2022-09-15T00:24:37.232Z,11.16
2022-09-15T00:25:44.019Z,11.14
2022-09-15T00:26:40.765Z,11.18
2022-09-15T00:27:41.193Z,11.16
2022-09-15T00:28:41.454Z,11.15
2022-09-15T00:29:40.680Z,11.14
2022-09-15T00:30:42.143Z,11.16
2022-09-15T00:31:40.790Z,11.12
2022-09-15T00:32:40.754Z,11.1
2022-09-15T00:33:41.172Z,11.07
2022-09-15T00:34:40.770Z,11.1
2022-09-15T00:35:41.777Z,11.08
2022-09-15T00:36:40.845Z,11.06
2022-09-15T00:37:40.842Z,11.08
2022-09-15T00:38:41.383Z,11.05
2022-09-15T00:39:40.886Z,11.07
2022-09-15T00:40:51.531Z,11.06
2022-09-15T00:41:43.501Z,11.07
2022-09-15T00:42:43.170Z,11.06
2022-09-15T00:45:48.325Z,11
2022-09-15T00:47:04.294Z,10.96
2022-09-15T00:47:51.399Z,10.93
2022-09-15T00:49:59.415Z,10.94
2022-09-15T00:50:57.219Z,10.92
2022-09-15T00:52:02.205Z,10.94
2022-09-15T00:53:00.345Z,10.96
2022-09-15T00:54:01.057Z,10.94
2022-09-15T00:55:05.283Z,10.95
2022-09-15T00:56:02.932Z,10.93
2022-09-15T00:57:04.286Z,10.94
2022-09-15T00:58:06.548Z,10.93
2022-09-15T00:59:06.724Z,10.94
2022-09-15T01:00:06.028Z,10.94
2022-09-15T01:01:04.099Z,10.93
2022-09-15T01:02:13.611Z,10.94
2022-09-15T01:03:05.379Z,10.96
2022-09-15T01:04:05.389Z,10.96
2022-09-15T01:05:07.242Z,10.97
2022-09-15T01:06:13.744Z,10.95
2022-09-15T01:07:13.961Z,10.95
2022-09-15T01:10:15.708Z,10.92
2022-09-15T01:11:14.086Z,10.9
2022-09-15T01:12:14.025Z,10.91
2022-09-15T01:13:14.504Z,10.92
2022-09-15T01:14:13.872Z,10.9
2022-09-15T01:15:14.005Z,10.91
2022-09-15T01:24:33.711Z,10.9
2022-09-15T01:27:51.343Z,10.94
2022-09-15T01:29:47.050Z,10.95
2022-09-15T01:30:51.159Z,10.94
2022-09-15T01:31:55.411Z,10.96
2022-09-15T01:35:04.921Z,10.94
2022-09-15T01:36:04.403Z,10.94
2022-09-15T01:37:04.278Z,10.95
2022-09-15T01:40:08.510Z,10.94
2022-09-15T01:42:13.655Z,10.97
2022-09-15T01:43:11.114Z,10.98
2022-09-15T01:44:13.750Z,10.97
2022-09-15T01:46:11.918Z,10.99
2022-09-15T01:47:13.603Z,11.01
2022-09-15T01:48:10.848Z,11.04
2022-09-15T01:49:12.911Z,11.01
2022-09-15T01:50:17.960Z,11.01
2022-09-15T01:51:14.153Z,11.03
2022-09-15T01:52:15.681Z,11.05
2022-09-15T01:53:17.639Z,11.06
2022-09-15T01:54:14.628Z,11.02
2022-09-15T01:56:17.334Z,11.07
2022-09-15T01:57:17.658Z,11.06
2022-09-15T01:58:17.199Z,11.09
2022-09-15T01:59:17.182Z,11.1
2022-09-15T02:00:17.211Z,11.13
2022-09-15T02:01:22.590Z,11.09
2022-09-15T02:02:27.388Z,11.08
2022-09-15T02:03:26.985Z,11.09
2022-09-15T02:04:28.250Z,11.1
2022-09-15T02:05:32.259Z,11.11
2022-09-15T02:06:33.706Z,11.08
2022-09-15T02:09:44.357Z,11.11
2022-09-15T02:10:51.489Z,11.12
2022-09-15T02:15:01.824Z,11.18
2022-09-15T02:15:57.167Z,11.15
2022-09-15T02:16:54.156Z,11.15
2022-09-15T02:17:53.895Z,11.18
2022-09-15T02:19:03.784Z,11.17
2022-09-15T02:19:57.425Z,11.18
2022-09-15T02:20:57.860Z,11.18
2022-09-15T02:22:56.601Z,11.14
2022-09-15T02:23:58.800Z,11.15
2022-09-15T02:25:59.726Z,11.16
2022-09-15T02:26:57.808Z,11.18
2022-09-15T02:28:00.705Z,11.18
2022-09-15T02:28:59.947Z,11.16
2022-09-15T02:30:00.887Z,11.14
2022-09-15T02:30:58.953Z,11.15
2022-09-15T02:31:58.451Z,11.15
2022-09-15T02:32:59.899Z,11.15
2022-09-15T02:33:59.935Z,11.15
2022-09-15T02:34:58.872Z,11.16
2022-09-15T02:35:59.173Z,11.15
2022-09-15T02:36:58.670Z,11.14
2022-09-15T02:37:58.175Z,11.17
2022-09-15T02:39:00.362Z,11.16
2022-09-15T02:39:59.668Z,11.15
2022-09-15T02:40:58.076Z,11.16
2022-09-15T02:41:57.862Z,11.17
2022-09-15T02:42:59.090Z,11.19
2022-09-15T02:43:57.885Z,11.2
2022-09-15T02:44:58.552Z,11.19
2022-09-15T02:45:58.056Z,11.17
2022-09-15T02:46:58.516Z,11.16
2022-09-15T02:47:58.450Z,11.19
2022-09-15T02:48:57.929Z,11.21
2022-09-15T02:49:57.944Z,11.18
2022-09-15T02:50:58.020Z,11.16
2022-09-15T02:51:57.966Z,11.19
2022-09-15T02:52:57.977Z,11.17
2022-09-15T02:53:58.024Z,11.16
2022-09-15T02:54:58.023Z,11.15
2022-09-15T02:55:58.079Z,11.2
2022-09-15T02:56:58.021Z,11.19
2022-09-15T02:57:58.637Z,11.19
2022-09-15T02:58:58.065Z,11.17
2022-09-15T02:59:58.078Z,11.17
2022-09-15T03:00:58.251Z,11.19
2022-09-15T03:01:58.107Z,11.17
2022-09-15T03:02:58.362Z,11.18
2022-09-15T03:03:58.457Z,11.17
2022-09-15T03:04:58.164Z,11.17
2022-09-15T03:05:58.583Z,11.16
2022-09-15T03:06:58.149Z,11.2
2022-09-15T03:07:58.188Z,11.22
2022-09-15T03:08:58.268Z,11.17
2022-09-15T03:09:58.509Z,11.19
2022-09-15T03:10:58.207Z,11.16
2022-09-15T03:11:58.236Z,11.17
2022-09-15T03:12:58.252Z,11.16
2022-09-15T03:13:59.428Z,11.17
2022-09-15T03:14:58.289Z,11.14
2022-09-15T03:15:58.322Z,11.16
2022-09-15T03:16:58.678Z,11.18
2022-09-15T03:17:58.293Z,11.18
2022-09-15T03:18:58.978Z,11.18
2022-09-15T03:19:58.321Z,11.15
2022-09-15T03:20:58.342Z,11.13
2022-09-15T03:21:58.327Z,11.12
2022-09-15T03:22:58.439Z,11.12
2022-09-15T03:23:58.689Z,11.15
2022-09-15T03:24:58.503Z,11.13
2022-09-15T03:25:58.695Z,11.13
2022-09-15T03:26:58.404Z,11.13
2022-09-15T03:27:58.466Z,11.15
2022-09-15T03:28:58.411Z,11.13
2022-09-15T03:29:58.488Z,11.13
2022-09-15T03:30:58.480Z,11.13
2022-09-15T03:31:58.564Z,11.12
2022-09-15T03:32:58.515Z,11.13
2022-09-15T03:33:58.481Z,11.12
2022-09-15T03:34:58.824Z,11.1
2022-09-15T03:35:58.544Z,11.14
2022-09-15T03:36:58.594Z,11.15
2022-09-15T03:37:58.557Z,11.13
2022-09-15T03:38:58.643Z,11.13
2022-09-15T03:39:58.841Z,11.17
2022-09-15T03:41:03.222Z,11.15
2022-09-15T03:41:59.426Z,11.13
2022-09-15T03:42:59.399Z,11.14
2022-09-15T03:43:59.446Z,11.14
2022-09-15T03:44:59.473Z,11.15
2022-09-15T03:45:59.925Z,11.11
2022-09-15T03:46:59.491Z,11.13
2022-09-15T03:47:59.498Z,11.1
2022-09-15T03:48:59.521Z,11.11
2022-09-15T03:49:59.498Z,11.13
2022-09-15T03:50:59.685Z,11.13
2022-09-15T03:51:59.595Z,11.13
2022-09-15T03:53:00.000Z,11.15
2022-09-15T03:53:59.591Z,11.21
2022-09-15T03:54:59.575Z,11.16
2022-09-15T03:56:59.837Z,11.12
2022-09-15T03:57:59.839Z,11.15
2022-09-15T03:59:00.573Z,11.14
2022-09-15T03:59:59.859Z,11.12
2022-09-15T04:00:59.961Z,11.13
2022-09-15T04:01:59.977Z,11.16
2022-09-15T04:02:59.897Z,11.16
2022-09-15T04:04:00.094Z,11.15
2022-09-15T04:05:00.005Z,11.19
2022-09-15T04:05:59.927Z,11.15
2022-09-15T04:06:59.936Z,11.14
2022-09-15T04:08:00.035Z,11.12
2022-09-15T04:08:59.966Z,11.13
2022-09-15T04:10:00.012Z,11.14
2022-09-15T04:11:03.699Z,11.13
2022-09-15T04:12:00.024Z,11.2
2022-09-15T04:13:00.047Z,11.18
2022-09-15T04:14:00.088Z,11.16
2022-09-15T04:15:00.209Z,11.18
2022-09-15T04:16:01.162Z,11.15
2022-09-15T04:17:00.093Z,11.18
2022-09-15T04:18:00.169Z,11.2
2022-09-15T04:19:00.097Z,11.23
2022-09-15T04:20:00.176Z,11.21
2022-09-15T04:21:00.780Z,11.19
2022-09-15T04:22:00.183Z,11.22
2022-09-15T04:23:00.151Z,11.26
2022-09-15T04:24:00.853Z,11.23
2022-09-15T04:25:00.178Z,11.24
2022-09-15T04:26:05.034Z,11.2
2022-09-15T04:27:01.225Z,11.22
2022-09-15T04:28:01.622Z,11.24
2022-09-15T04:29:04.680Z,11.25
2022-09-15T04:30:01.288Z,11.24
2022-09-15T04:32:05.294Z,11.24
2022-09-15T04:33:04.873Z,11.24
2022-09-15T04:34:04.898Z,11.24
2022-09-15T04:35:05.348Z,11.24
2022-09-15T04:36:06.546Z,11.23
2022-09-15T04:37:05.070Z,11.21
2022-09-15T04:38:05.059Z,11.23
2022-09-15T04:39:05.131Z,11.22
2022-09-15T04:40:05.401Z,11.24
2022-09-15T04:41:05.570Z,11.23
2022-09-15T04:42:05.400Z,11.22
2022-09-15T04:43:05.010Z,11.21
2022-09-15T04:44:05.036Z,11.18
2022-09-15T04:45:05.471Z,11.17
2022-09-15T04:46:05.183Z,11.23
2022-09-15T04:47:05.248Z,11.22
2022-09-15T04:48:05.099Z,11.18
2022-09-15T04:49:05.104Z,11.21
2022-09-15T04:50:05.570Z,11.22
2022-09-15T04:51:06.896Z,11.19
2022-09-15T04:52:09.466Z,11.21
2022-09-15T04:53:06.512Z,11.23
2022-09-15T04:54:06.054Z,11.23
2022-09-15T04:55:06.374Z,11.22
2022-09-15T04:56:07.371Z,11.18
2022-09-15T04:57:06.276Z,11.22
2022-09-15T04:58:06.113Z,11.18
2022-09-15T04:59:06.127Z,11.19
2022-09-15T05:00:06.595Z,11.16
2022-09-15T05:01:10.358Z,11.15
2022-09-15T05:02:06.756Z,11.18
2022-09-15T05:03:06.610Z,11.18
2022-09-15T05:04:06.804Z,11.19
2022-09-15T05:05:06.878Z,11.14
2022-09-15T05:06:07.691Z,11.15
2022-09-15T05:07:06.695Z,11.14
2022-09-15T05:08:07.280Z,11.21
2022-09-15T05:09:10.258Z,11.16
2022-09-15T05:10:07.201Z,11.15
2022-09-15T05:11:09.871Z,11.18
2022-09-15T05:12:06.978Z,11.15
2022-09-15T05:13:06.917Z,11.18
2022-09-15T05:14:06.916Z,11.18
2022-09-15T05:15:07.919Z,11.18
2022-09-15T05:16:11.231Z,11.16
2022-09-15T05:17:07.462Z,11.2
2022-09-15T05:18:07.472Z,11.18
2022-09-15T05:19:07.650Z,11.16
2022-09-15T05:20:07.999Z,11.15
2022-09-15T05:21:08.599Z,11.18
2022-09-15T05:22:08.247Z,11.18
2022-09-15T05:23:07.924Z,11.16
2022-09-15T05:24:07.602Z,11.18
2022-09-15T05:25:08.009Z,11.15
2022-09-15T05:26:12.040Z,11.17
2022-09-15T05:27:08.208Z,11.15
2022-09-15T05:28:08.250Z,11.17
2022-09-15T05:29:08.477Z,11.17
2022-09-15T05:31:15.904Z,11.19
2022-09-15T05:32:13.188Z,11.18
2022-09-15T05:33:13.198Z,11.2
2022-09-15T05:34:13.196Z,11.17
2022-09-15T05:35:13.286Z,11.21
2022-09-15T05:36:13.714Z,11.25
2022-09-15T05:37:13.479Z,11.25
2022-09-15T05:38:13.257Z,11.24
2022-09-15T05:39:13.268Z,11.21
2022-09-15T05:40:13.370Z,11.2
2022-09-15T05:41:14.889Z,11.22
2022-09-15T05:42:13.322Z,11.23
2022-09-15T05:43:13.663Z,11.28
2022-09-15T05:44:13.336Z,11.22
2022-09-15T05:45:13.500Z,11.24
2022-09-15T05:46:13.883Z,11.27
2022-09-15T05:47:13.387Z,11.3
2022-09-15T05:48:13.435Z,11.3
2022-09-15T05:49:13.604Z,11.23
2022-09-15T05:50:13.588Z,11.28
2022-09-15T05:51:13.928Z,11.26
2022-09-15T05:52:13.444Z,11.25
2022-09-15T05:53:13.509Z,11.19
2022-09-15T05:54:13.509Z,11.21
2022-09-15T05:55:13.597Z,11.19
2022-09-15T05:56:14.390Z,11.21
2022-09-15T05:57:13.585Z,11.18
2022-09-15T05:58:13.700Z,11.22
2022-09-15T05:59:13.643Z,11.21
2022-09-15T06:00:14.173Z,11.2
2022-09-15T06:01:18.419Z,11.22
2022-09-15T06:02:14.653Z,11.25
2022-09-15T06:03:15.687Z,11.23
2022-09-15T06:04:14.616Z,11.29
2022-09-15T06:05:14.650Z,11.26
2022-09-15T06:06:14.740Z,11.22
2022-09-15T06:07:16.048Z,11.25
2022-09-15T06:08:14.712Z,11.22
2022-09-15T06:09:14.913Z,11.24
2022-09-15T06:10:15.026Z,11.24
2022-09-15T06:11:16.223Z,11.22
2022-09-15T06:12:14.783Z,11.24
2022-09-15T06:13:14.962Z,11.29
2022-09-15T06:14:14.794Z,11.22
2022-09-15T06:15:14.990Z,11.29
2022-09-15T06:17:18.098Z,11.27
2022-09-15T06:18:18.091Z,11.26
2022-09-15T06:19:18.331Z,11.22
2022-09-15T06:20:18.620Z,11.25
2022-09-15T06:21:19.768Z,11.23
2022-09-15T06:22:18.145Z,11.26
2022-09-15T06:23:18.158Z,11.22
2022-09-15T06:24:18.186Z,11.24
2022-09-15T06:25:18.345Z,11.24
2022-09-15T06:26:18.910Z,11.24
2022-09-15T06:27:18.465Z,11.24
2022-09-15T06:28:18.283Z,11.23
2022-09-15T06:29:18.360Z,11.21
2022-09-15T06:30:18.319Z,11.24
2022-09-15T06:31:18.559Z,11.24
2022-09-15T06:32:18.332Z,11.2
2022-09-15T06:33:18.409Z,11.19
2022-09-15T06:34:18.367Z,11.19
2022-09-15T06:35:18.385Z,11.26
2022-09-15T06:36:19.040Z,11.24
2022-09-15T06:37:18.552Z,11.34
2022-09-15T06:38:18.471Z,11.35
2022-09-15T06:39:18.432Z,11.27
2022-09-15T06:40:18.513Z,11.33
2022-09-15T06:41:18.788Z,11.36
2022-09-15T06:42:18.458Z,11.37
2022-09-15T06:43:18.552Z,11.39
2022-09-15T06:44:18.999Z,11.38
2022-09-15T06:45:34.848Z,11.36
2022-09-15T06:46:26.586Z,11.45
2022-09-15T06:47:26.081Z,11.38
2022-09-15T06:48:26.076Z,11.35
2022-09-15T06:49:26.098Z,11.41
2022-09-15T06:50:26.099Z,11.46
2022-09-15T06:51:26.126Z,11.47
2022-09-15T06:52:26.137Z,11.44
2022-09-15T06:53:28.195Z,11.51
2022-09-15T06:54:26.147Z,11.5
2022-09-15T06:55:26.188Z,11.47
2022-09-15T06:56:26.204Z,11.47
2022-09-15T06:57:26.209Z,11.45
2022-09-15T06:58:26.238Z,11.56
2022-09-15T06:59:26.319Z,11.53
2022-09-15T07:00:26.464Z,11.51
2022-09-15T07:01:27.701Z,11.55
2022-09-15T07:02:26.404Z,11.68
2022-09-15T07:03:26.494Z,11.69
2022-09-15T07:04:26.400Z,11.56
2022-09-15T07:05:26.350Z,11.65
2022-09-15T07:06:30.318Z,11.75
2022-09-15T07:07:27.429Z,11.79
2022-09-15T07:08:26.535Z,11.69
2022-09-15T07:09:26.566Z,11.7
2022-09-15T07:10:26.659Z,11.78
2022-09-15T07:11:26.631Z,11.78
2022-09-15T07:12:26.588Z,11.85
2022-09-15T07:13:26.759Z,11.88
2022-09-15T07:14:26.672Z,11.87
2022-09-15T07:15:26.638Z,11.89
2022-09-15T07:16:27.015Z,11.93
2022-09-15T07:17:26.955Z,12.06
2022-09-15T07:18:27.031Z,11.93
2022-09-15T07:19:26.750Z,12
2022-09-15T07:20:26.760Z,11.98
2022-09-15T07:21:26.785Z,12.08
2022-09-15T07:22:26.748Z,12.09
2022-09-15T07:23:26.780Z,12.03
2022-09-15T07:24:26.812Z,11.98
2022-09-15T07:25:26.811Z,12.02
2022-09-15T07:26:28.985Z,12.07
2022-09-15T07:27:26.851Z,11.99
2022-09-15T07:28:26.849Z,12
2022-09-15T07:29:26.866Z,12.05
2022-09-15T07:30:26.942Z,12.06
2022-09-15T07:31:28.702Z,12.12
2022-09-15T07:32:26.922Z,12.2
2022-09-15T07:33:27.099Z,12.14
2022-09-15T07:34:26.946Z,12.23
2022-09-15T07:35:27.103Z,12.23
2022-09-15T07:36:27.447Z,12.13
2022-09-15T07:37:27.180Z,12.1
2022-09-15T07:38:26.997Z,12.21
2022-09-15T07:39:27.031Z,12.23
2022-09-15T07:40:27.801Z,12.15
2022-09-15T07:41:27.958Z,12.2
2022-09-15T07:42:27.084Z,12.25
2022-09-15T07:43:27.113Z,12.28
2022-09-15T07:44:27.154Z,12.31
2022-09-15T07:45:27.225Z,12.2
2022-09-15T07:46:29.436Z,12.14
2022-09-15T07:47:27.174Z,11.97
2022-09-15T07:48:27.606Z,12.03
2022-09-15T07:49:27.429Z,12.02
2022-09-15T07:50:27.226Z,12.01
2022-09-15T07:51:27.263Z,11.94
2022-09-15T07:52:27.295Z,11.93
2022-09-15T07:53:28.274Z,11.87
2022-09-15T07:54:27.311Z,11.91
2022-09-15T07:55:27.353Z,11.99
2022-09-15T07:56:27.331Z,11.93
2022-09-15T07:57:27.419Z,11.96
2022-09-15T07:58:27.350Z,11.93
2022-09-15T07:59:27.610Z,12.06
2022-09-15T08:00:27.659Z,12.1
2022-09-15T08:01:27.478Z,12.1
2022-09-15T08:02:27.721Z,11.97
2022-09-15T08:03:27.444Z,12.04
2022-09-15T08:04:27.596Z,12
2022-09-15T08:05:27.809Z,11.98
2022-09-15T08:06:27.629Z,12.07
2022-09-15T08:07:27.686Z,11.89
2022-09-15T08:08:27.867Z,11.95
2022-09-15T08:09:27.539Z,11.83
2022-09-15T08:10:27.563Z,11.81
2022-09-15T08:11:28.159Z,11.85
2022-09-15T08:12:27.653Z,11.93
2022-09-15T08:13:28.510Z,11.87
2022-09-15T08:14:27.640Z,11.94
2022-09-15T08:15:27.704Z,12.06
2022-09-15T08:16:27.744Z,12.13
2022-09-15T08:17:27.680Z,12.17
2022-09-15T08:18:27.722Z,12.34
2022-09-15T08:19:27.922Z,12.31
2022-09-15T08:20:27.719Z,12.41
2022-09-15T08:21:27.773Z,12.43
2022-09-15T08:22:27.789Z,12.5
2022-09-15T08:23:28.222Z,12.63
2022-09-15T08:24:28.582Z,12.56
2022-09-15T08:25:27.841Z,12.61
2022-09-15T08:26:28.901Z,12.67
2022-09-15T08:27:27.865Z,12.62
2022-09-15T08:28:27.907Z,12.43
2022-09-15T08:29:27.866Z,12.5
2022-09-15T08:30:27.918Z,12.56
2022-09-15T08:31:28.135Z,12.52
2022-09-15T08:32:27.974Z,12.51
2022-09-15T08:33:29.113Z,12.45
2022-09-15T08:34:28.000Z,12.42
2022-09-15T08:35:29.167Z,12.47
2022-09-15T08:36:28.395Z,12.45
2022-09-15T08:37:28.214Z,12.5
2022-09-15T08:38:28.065Z,12.36
2022-09-15T08:50:36.842Z,12.65
2022-09-15T08:51:40.458Z,12.71
2022-09-15T08:52:45.746Z,12.87
2022-09-15T08:53:45.441Z,12.77
2022-09-15T08:54:41.663Z,12.8
2022-09-15T08:56:43.793Z,12.95
2022-09-15T08:57:43.574Z,12.96
2022-09-15T08:58:44.580Z,13.02
2022-09-15T08:59:43.665Z,12.85
2022-09-15T09:00:45.402Z,12.93
2022-09-15T09:13:23.381Z,13.19
2022-09-15T09:21:46.203Z,12.9
2022-09-15T09:22:44.332Z,12.93
2022-09-15T09:23:46.716Z,13.01
2022-09-15T09:24:47.731Z,12.97
2022-09-15T09:25:44.661Z,13.08
2022-09-15T09:26:48.754Z,13
2022-09-15T09:27:46.681Z,13.13
2022-09-15T09:28:49.540Z,13.05
2022-09-15T09:29:47.767Z,13.13
2022-09-15T09:30:48.108Z,13.09
2022-09-15T09:31:50.740Z,13.14
2022-09-15T09:35:59.669Z,13.12
2022-09-15T09:36:58.809Z,13.27
2022-09-15T09:37:57.957Z,13.34
2022-09-15T09:38:57.948Z,13.34
2022-09-15T09:39:57.943Z,13.44
2022-09-15T09:41:02.036Z,13.57
2022-09-15T09:41:58.896Z,13.7
2022-09-15T09:43:00.034Z,13.53
2022-09-15T09:43:58.876Z,13.65
2022-09-15T09:44:59.054Z,13.55
2022-09-15T09:45:58.945Z,13.67
2022-09-15T09:46:59.534Z,13.69
2022-09-15T09:48:02.131Z,13.61
2022-09-15T09:50:02.288Z,13.69
2022-09-15T09:51:02.216Z,13.64
2022-09-15T09:52:02.766Z,13.64
2022-09-15T09:54:08.865Z,13.46
2022-09-15T09:58:13.379Z,13.57
2022-09-15T10:01:22.299Z,13.49
2022-09-15T10:02:21.557Z,13.45
2022-09-15T10:03:21.772Z,13.35
2022-09-15T10:04:22.631Z,13.28
2022-09-15T10:05:20.552Z,13.32
2022-09-15T10:06:20.983Z,13.19
2022-09-15T10:07:22.717Z,13.19
2022-09-15T10:08:20.662Z,13.22
2022-09-15T10:09:20.481Z,13.2
2022-09-15T10:10:21.854Z,13.15
2022-09-15T10:11:20.788Z,13.14
2022-09-15T10:12:23.489Z,13
2022-09-15T10:13:20.956Z,13.02
2022-09-15T10:14:34.218Z,13.12
2022-09-15T10:15:31.456Z,13.06
2022-09-15T10:16:23.194Z,13.1
2022-09-15T10:17:24.659Z,13.11
2022-09-15T10:18:33.970Z,13.12
2022-09-15T10:19:26.777Z,13.19
2022-09-15T10:20:27.782Z,13.19
2022-09-15T10:21:25.799Z,13.21
2022-09-15T10:22:39.511Z,13.35
2022-09-15T10:23:30.386Z,13.37
2022-09-15T10:24:32.545Z,13.37
2022-09-15T10:25:49.389Z,13.38
2022-09-15T10:26:34.093Z,13.39
2022-09-15T10:27:33.518Z,13.48
2022-09-15T10:28:32.187Z,13.53
2022-09-15T10:30:32.318Z,13.87
2022-09-15T10:31:32.681Z,13.79
2022-09-15T10:32:32.352Z,13.87
2022-09-15T10:33:33.576Z,14.2
2022-09-15T10:34:32.413Z,14.07
2022-09-15T10:35:32.523Z,13.94
2022-09-15T10:36:32.450Z,13.95
2022-09-15T10:41:45.792Z,14.06
2022-09-15T10:42:53.176Z,14.14
2022-09-15T10:44:56.647Z,14.17
2022-09-15T10:47:02.833Z,14.31
2022-09-15T10:55:48.447Z,14.37
2022-09-15T11:00:38.180Z,14.08
2022-09-15T11:01:36.936Z,14.25
2022-09-15T11:19:22.693Z,14.7
2022-09-15T11:21:22.722Z,14.61
2022-09-15T11:22:21.486Z,14.55
2022-09-15T11:23:31.555Z,14.45
2022-09-15T11:24:26.200Z,14.3
2022-09-15T11:25:25.501Z,14.28
2022-09-15T11:30:45.631Z,14.8
2022-09-15T11:31:40.577Z,15.03
2022-09-15T11:32:43.163Z,15.03
2022-09-15T11:37:59.075Z,15.04
2022-09-15T11:40:03.071Z,15.11
2022-09-15T11:42:07.106Z,15.16
2022-09-15T11:45:06.595Z,15.51
2022-09-15T11:48:15.929Z,15.2
2022-09-15T11:50:21.889Z,15.06
2022-09-15T11:51:19.643Z,14.94
2022-09-15T11:53:30.080Z,14.79
2022-09-15T11:54:34.692Z,14.85
2022-09-15T11:55:37.029Z,14.67
2022-09-15T11:56:36.445Z,14.62
2022-09-15T11:57:44.854Z,14.66
2022-09-15T11:59:48.857Z,14.64
2022-09-15T12:00:56.493Z,14.48
2022-09-15T12:01:55.350Z,14.42
2022-09-15T12:02:56.338Z,14.4
2022-09-15T12:04:00.862Z,14.38
2022-09-15T12:07:12.320Z,14.58
2022-09-15T12:08:10.735Z,14.63
2022-09-15T12:09:11.667Z,14.53
2022-09-15T12:11:14.002Z,14.66
2022-09-15T12:12:15.306Z,14.61
2022-09-15T12:13:21.256Z,14.56
2022-09-15T12:15:15.271Z,14.7
2022-09-15T12:16:14.332Z,14.74
2022-09-15T12:22:31.104Z,14.61
2022-09-15T12:26:35.225Z,14.59
2022-09-15T12:27:34.966Z,14.56
2022-09-15T12:28:39.347Z,14.66
2022-09-15T12:29:41.808Z,14.66
2022-09-15T12:30:42.304Z,14.75
2022-09-15T12:31:39.523Z,14.45
2022-09-15T12:32:39.022Z,14.61
2022-09-15T12:35:46.044Z,14.7
2022-09-15T12:36:47.356Z,14.71
2022-09-15T12:37:53.670Z,14.58
2022-09-15T12:38:49.838Z,14.53
2022-09-15T12:39:50.083Z,14.62
2022-09-15T12:40:57.467Z,14.52
2022-09-15T12:42:56.848Z,14.34
2022-09-15T12:43:58.181Z,14.3
2022-09-15T12:44:58.198Z,14.25
2022-09-15T12:45:57.707Z,14.28
2022-09-15T12:46:57.850Z,14.27
2022-09-15T12:49:02.628Z,14.38
2022-09-15T12:50:02.845Z,14.46
2022-09-15T12:51:02.921Z,14.59
2022-09-15T12:52:02.984Z,14.54
2022-09-15T12:53:13.384Z,14.61
2022-09-15T12:54:05.776Z,14.69
2022-09-15T12:55:05.330Z,14.55
2022-09-15T12:56:06.969Z,14.51
2022-09-15T12:57:06.653Z,14.62
2022-09-15T12:58:09.222Z,14.53
2022-09-15T12:59:07.101Z,14.56
2022-09-15T13:06:23.411Z,14.59
2022-09-15T13:07:30.981Z,14.62
2022-09-15T13:09:26.472Z,14.58
2022-09-15T13:12:32.975Z,14.47
2022-09-15T13:14:35.435Z,14.18
2022-09-15T13:15:33.417Z,14.21
2022-09-15T13:16:34.328Z,14.06
2022-09-15T13:17:33.149Z,14.09
2022-09-15T13:18:33.662Z,14.04
2022-09-15T13:20:38.144Z,13.91
2022-09-15T13:21:38.163Z,13.78
2022-09-15T13:22:43.667Z,13.81
2022-09-15T13:23:42.474Z,13.7
2022-09-15T13:25:46.097Z,13.66
2022-09-15T13:26:47.328Z,13.69
2022-09-15T13:27:48.652Z,13.62
2022-09-15T13:28:46.807Z,13.56
2022-09-15T13:42:28.605Z,12.92
2022-09-15T13:48:49.908Z,12.71
2022-09-15T13:50:42.751Z,12.66
2022-09-15T13:51:43.394Z,12.66
2022-09-15T13:55:53.142Z,12.48
2022-09-15T13:56:52.648Z,12.51
2022-09-15T13:59:01.864Z,12.47
2022-09-15T13:59:55.414Z,12.43
2022-09-15T14:00:59.870Z,12.34
2022-09-15T14:01:56.497Z,12.26
2022-09-15T14:02:58.469Z,12.21
2022-09-15T14:04:01.163Z,12.14
2022-09-15T14:04:57.365Z,11.99
2022-09-15T14:05:57.496Z,12.04
2022-09-15T14:07:00.923Z,11.91
2022-09-15T14:08:01.390Z,11.89
2022-09-15T14:09:01.224Z,11.86
2022-09-15T14:09:57.986Z,11.87
2022-09-15T14:10:59.022Z,11.91
2022-09-15T14:12:01.134Z,11.87
2022-09-15T14:12:59.441Z,11.86
2022-09-15T14:13:58.102Z,11.84
2022-09-15T14:15:00.555Z,11.86
2022-09-15T14:16:02.940Z,11.87
2022-09-15T14:16:59.177Z,11.89
2022-09-15T14:17:59.159Z,11.87
2022-09-15T14:18:59.676Z,11.99
2022-09-15T14:19:59.937Z,11.99
2022-09-15T14:21:05.449Z,11.97
2022-09-15T14:23:15.435Z,11.98
2022-09-15T14:24:17.301Z,11.96
2022-09-15T14:25:14.500Z,11.94
2022-09-15T14:26:12.770Z,12.04
2022-09-15T14:27:11.910Z,12.09
2022-09-15T14:28:17.705Z,12.07
2022-09-15T14:29:18.805Z,12.02
2022-09-15T14:30:17.987Z,12.1
2022-09-15T14:31:15.879Z,12.12
2022-09-15T14:32:16.520Z,12.02
2022-09-15T14:33:17.180Z,12.15
2022-09-15T14:34:25.945Z,12.08
2022-09-15T14:35:20.214Z,12.11
2022-09-15T14:36:30.971Z,12.12
2022-09-15T14:37:20.758Z,12.22
2022-09-15T14:38:21.991Z,12.15
2022-09-15T14:39:20.153Z,12.18
2022-09-15T14:41:21.257Z,12.2
2022-09-15T14:42:25.889Z,12.12
2022-09-15T14:43:32.680Z,12.12
2022-09-15T14:46:35.570Z,12.11
2022-09-15T14:47:32.311Z,12.13
2022-09-15T14:48:32.314Z,12.09
2022-09-15T14:49:32.395Z,12.11
2022-09-15T14:50:33.615Z,12.01
2022-09-15T14:51:33.479Z,12.07
2022-09-15T14:52:35.527Z,12.03
2022-09-15T14:53:34.480Z,12.04
2022-09-15T14:54:35.846Z,12.08
2022-09-15T14:55:45.067Z,12.06
2022-09-15T14:56:39.029Z,12.06
2022-09-15T14:57:39.131Z,11.98
2022-09-15T14:58:50.485Z,12.04
2022-09-15T14:59:41.175Z,12.04
2022-09-15T15:00:42.981Z,12.04
2022-09-15T15:01:45.977Z,12
2022-09-15T15:02:54.540Z,11.96
2022-09-15T15:03:51.447Z,12.03
2022-09-15T15:04:58.867Z,12.01
2022-09-15T15:06:02.292Z,12.02
2022-09-15T15:08:00.675Z,12
2022-09-15T15:10:05.732Z,12
2022-09-15T15:11:06.445Z,12.04
2022-09-15T15:12:06.391Z,12.05
2022-09-15T15:14:06.161Z,11.99
2022-09-15T15:15:06.690Z,12
2022-09-15T15:16:09.500Z,12
2022-09-15T15:17:06.027Z,12.01
2022-09-15T15:22:20.538Z,12.06
2022-09-15T15:23:23.938Z,12.08
2022-09-15T15:24:22.250Z,12.11
2022-09-15T15:25:25.627Z,12.13
2022-09-15T15:26:32.853Z,12.12
2022-09-15T15:28:34.384Z,12.13
2022-09-15T15:29:40.062Z,12.13
2022-09-15T15:30:34.393Z,12.11
2022-09-15T15:31:31.166Z,12.1
2022-09-15T15:32:31.261Z,12.12
2022-09-15T15:33:31.067Z,12.1
2022-09-15T15:34:31.081Z,12.14
2022-09-15T15:35:32.407Z,12.09
2022-09-15T15:36:32.649Z,12.05
2022-09-15T15:37:32.386Z,12.14
2022-09-15T15:38:34.093Z,12.14
2022-09-15T15:39:31.326Z,12.12
2022-09-15T15:40:32.559Z,12.05
2022-09-15T15:41:34.831Z,12.02
2022-09-15T15:42:31.640Z,12.1
2022-09-15T15:43:31.682Z,12.06
2022-09-15T15:44:32.200Z,12.04
2022-09-15T15:45:34.220Z,12
2022-09-15T15:46:44.784Z,12
2022-09-15T15:47:36.690Z,12.04
2022-09-15T15:48:38.497Z,12.04
2022-09-15T15:49:42.334Z,12.02
2022-09-15T15:50:37.802Z,12.05
2022-09-15T15:51:37.935Z,12.05
2022-09-15T15:52:38.191Z,12.04
2022-09-15T15:53:37.791Z,12.08
2022-09-15T15:54:37.880Z,12.07
2022-09-15T15:55:39.775Z,12.1
2022-09-15T15:56:38.272Z,12.05
2022-09-15T15:57:38.249Z,12.1
2022-09-15T15:58:37.899Z,12.04
2022-09-15T15:59:38.697Z,12
2022-09-15T16:00:41.718Z,11.99
2022-09-15T16:01:38.817Z,11.94
2022-09-15T16:02:40.807Z,11.93
2022-09-15T16:03:38.764Z,11.87
2022-09-15T16:04:38.754Z,11.86
2022-09-15T16:05:39.638Z,11.8
2022-09-15T16:06:38.912Z,11.76
2022-09-15T16:07:39.046Z,11.74
2022-09-15T16:08:41.343Z,11.72
2022-09-15T16:09:39.064Z,11.71
2022-09-15T16:10:41.249Z,11.72
2022-09-15T16:11:40.281Z,11.69
2022-09-15T16:12:38.994Z,11.67
2022-09-15T16:13:39.038Z,11.71
2022-09-15T16:14:38.911Z,11.64
2022-09-15T16:15:38.839Z,11.63
2022-09-15T16:16:38.975Z,11.61